Time;durP1;ratioP1;P1;durP2;ratioP2;P2;SDS_P1;SDS_P2;PMS_P1;PMS_P2;Temp;Humidity;BMP_temperature;BMP_pressure;BME280_temperature;BME280_humidity;BME280_pressure;Samples;Min_cycle;Max_cycle;Signal;HPM_P1;HPM_P2
2022/03/02 00:02:18;;;;;;;13.48;7.03;;;1.30;63.80;;;;;;4940764;28;20047;-78
2022/03/02 00:04:43;;;;;;;13.40;7.57;;;1.20;63.80;;;;;;4926060;29;20035;-78
2022/03/02 00:07:09;;;;;;;18.17;8.38;;;1.20;64.00;;;;;;4932783;28;20070;-79
2022/03/02 00:09:34;;;;;;;15.35;7.75;;;1.20;64.00;;;;;;4934191;28;20738;-79
2022/03/02 00:12:00;;;;;;;12.48;7.40;;;1.20;64.00;;;;;;4927530;28;20464;-79
2022/03/02 00:14:25;;;;;;;12.38;7.45;;;1.20;64.10;;;;;;4940998;28;20421;-78
2022/03/02 00:16:51;;;;;;;11.18;6.63;;;1.10;64.20;;;;;;4923884;29;20385;-78
2022/03/02 00:19:17;;;;;;;10.95;6.53;;;1.10;64.30;;;;;;4949802;28;20035;-79
2022/03/02 00:21:43;;;;;;;12.07;7.68;;;1.20;64.50;;;;;;4942243;28;20047;-78
2022/03/02 00:24:08;;;;;;;15.57;6.95;;;1.20;64.60;;;;;;4945647;28;20047;-79
2022/03/02 00:26:34;;;;;;;13.13;6.68;;;1.20;64.70;;;;;;4966786;28;20051;-77
2022/03/02 00:28:59;;;;;;;12.88;6.95;;;1.20;64.70;;;;;;4923028;28;20035;-79
2022/03/02 00:31:25;;;;;;;11.35;6.47;;;1.20;64.70;;;;;;4945669;28;20047;-78
2022/03/02 00:33:51;;;;;;;12.38;6.93;;;1.20;64.80;;;;;;4940177;28;20038;-79
2022/03/02 00:36:17;;;;;;;15.02;7.30;;;1.30;64.90;;;;;;4958062;28;20043;-78
2022/03/02 00:38:42;;;;;;;12.00;6.82;;;1.30;65.00;;;;;;4941069;28;20054;-78
2022/03/02 00:41:08;;;;;;;12.15;6.25;;;1.20;65.00;;;;;;4933338;28;20412;-78
2022/03/02 00:43:34;;;;;;;13.60;7.07;;;1.30;65.10;;;;;;4928531;28;20066;-78
2022/03/02 00:45:59;;;;;;;12.30;7.07;;;1.30;65.20;;;;;;4943359;28;20047;-79
2022/03/02 00:48:25;;;;;;;12.55;6.50;;;1.30;65.10;;;;;;4937050;28;20039;-79
2022/03/02 00:50:51;;;;;;;13.43;6.68;;;1.30;65.20;;;;;;4950294;28;20039;-79
2022/03/02 00:53:16;;;;;;;11.52;6.55;;;1.30;65.30;;;;;;4940892;28;20510;-79
2022/03/02 00:55:42;;;;;;;13.18;7.13;;;1.30;65.30;;;;;;4927953;28;20035;-78
2022/03/02 00:58:08;;;;;;;11.80;6.97;;;1.30;65.50;;;;;;4919384;28;20159;-78
2022/03/02 01:00:33;;;;;;;10.35;6.00;;;1.30;65.50;;;;;;4941514;28;20046;-79
2022/03/02 01:02:59;;;;;;;12.55;6.80;;;1.30;65.50;;;;;;4940380;28;20148;-79
2022/03/02 01:05:24;;;;;;;13.77;6.93;;;1.30;65.40;;;;;;4942076;28;20040;-78
2022/03/02 01:07:50;;;;;;;14.45;7.05;;;1.30;65.50;;;;;;4938886;28;20063;-78
2022/03/02 01:10:16;;;;;;;10.65;6.60;;;1.20;65.50;;;;;;4928955;28;20383;-79
2022/03/02 01:12:42;;;;;;;11.02;6.22;;;1.20;65.60;;;;;;4939721;28;20040;-78
2022/03/02 01:15:08;;;;;;;11.13;6.65;;;1.20;65.70;;;;;;4939576;28;20449;-78
2022/03/02 01:17:34;;;;;;;11.93;7.22;;;1.20;65.90;;;;;;4944403;28;20623;-78
2022/03/02 01:19:59;;;;;;;10.10;6.68;;;1.20;66.00;;;;;;4921675;28;20528;-78
2022/03/02 01:22:25;;;;;;;14.82;7.70;;;1.20;66.00;;;;;;4926294;28;20066;-78
2022/03/02 01:24:50;;;;;;;10.68;6.60;;;1.20;66.10;;;;;;4929965;28;20539;-78
2022/03/02 01:27:16;;;;;;;12.32;6.82;;;1.20;66.20;;;;;;4940633;28;20035;-78
2022/03/02 01:29:41;;;;;;;10.23;6.05;;;1.20;66.20;;;;;;4928911;28;20464;-79
2022/03/02 01:32:08;;;;;;;9.98;6.55;;;1.20;66.30;;;;;;4946952;28;20568;-79
2022/03/02 01:34:34;;;;;;;10.85;6.50;;;1.20;66.30;;;;;;4924898;28;20142;-78
2022/03/02 01:36:59;;;;;;;11.15;6.47;;;1.20;66.30;;;;;;4925513;28;20692;-78
2022/03/02 01:39:25;;;;;;;10.60;6.18;;;1.20;66.30;;;;;;4923692;28;20102;-78
2022/03/02 01:41:51;;;;;;;11.27;5.93;;;1.20;66.30;;;;;;4931393;28;20032;-78
2022/03/02 01:44:16;;;;;;;12.48;6.82;;;1.10;66.30;;;;;;4954684;28;20043;-78
2022/03/02 01:46:42;;;;;;;12.90;6.55;;;1.10;66.40;;;;;;4918084;28;20477;-77
2022/03/02 01:49:07;;;;;;;10.65;6.15;;;1.10;66.40;;;;;;4972528;28;20072;-78
2022/03/02 01:51:33;;;;;;;13.38;6.45;;;1.00;66.40;;;;;;4944312;28;20047;-79
2022/03/02 01:53:59;;;;;;;10.70;6.10;;;1.00;66.50;;;;;;4926773;28;20099;-79
2022/03/02 01:56:24;;;;;;;10.38;6.00;;;0.90;66.50;;;;;;4933674;28;20501;-78
2022/03/02 01:58:50;;;;;;;10.55;6.03;;;0.90;66.60;;;;;;4941231;28;20035;-79
2022/03/02 02:01:15;;;;;;;10.98;6.38;;;0.90;66.70;;;;;;4942671;28;20043;-80
2022/03/02 02:03:41;;;;;;;11.55;6.55;;;0.90;66.90;;;;;;4921652;28;20518;-78
2022/03/02 02:06:08;;;;;;;12.65;6.63;;;0.90;66.90;;;;;;4936578;28;20040;-78
2022/03/02 02:08:33;;;;;;;10.10;5.82;;;0.90;66.80;;;;;;4925649;28;20031;-78
2022/03/02 02:10:59;;;;;;;15.20;6.40;;;0.90;66.90;;;;;;4941901;28;20046;-77
2022/03/02 02:13:25;;;;;;;10.82;6.18;;;0.90;66.80;;;;;;4932620;28;20039;-80
2022/03/02 02:15:52;;;;;;;8.20;5.70;;;0.80;66.90;;;;;;4950788;28;20086;-78
2022/03/02 02:18:18;;;;;;;9.57;6.13;;;0.80;67.10;;;;;;4919101;28;20042;-77
2022/03/02 02:20:43;;;;;;;9.63;5.63;;;0.80;67.10;;;;;;4951600;28;20055;-78
2022/03/02 02:23:09;;;;;;;11.57;6.15;;;0.80;67.20;;;;;;4934441;28;20058;-77
2022/03/02 02:25:34;;;;;;;11.30;6.15;;;0.80;67.20;;;;;;4925090;28;20038;-78
2022/03/02 02:28:00;;;;;;;8.05;5.22;;;0.80;67.30;;;;;;4926972;28;20125;-78
2022/03/02 02:30:26;;;;;;;9.25;5.70;;;0.80;67.20;;;;;;4940420;28;20572;-78
2022/03/02 02:32:51;;;;;;;8.70;5.50;;;0.70;67.30;;;;;;4917985;28;20039;-78
2022/03/02 02:35:17;;;;;;;8.77;5.38;;;0.70;67.20;;;;;;4950458;28;20082;-77
2022/03/02 02:37:43;;;;;;;10.60;5.65;;;0.60;67.10;;;;;;4943749;28;20042;-77
2022/03/02 02:40:14;;;;;;;10.45;5.57;;;0.60;67.10;;;;;;4944168;28;20511;-78
2022/03/02 02:42:44;;;;;;;9.13;5.53;;;0.50;67.20;;;;;;4914973;28;20047;-78
2022/03/02 02:45:10;;;;;;;11.00;5.55;;;0.50;67.20;;;;;;4940192;28;20071;-78
2022/03/02 02:47:35;;;;;;;7.78;5.30;;;0.40;67.20;;;;;;4923377;28;20491;-77
2022/03/02 02:50:07;;;;;;;9.27;6.28;;;0.40;67.30;;;;;;4937522;28;20408;-78
2022/03/02 02:52:39;;;;;;;9.68;6.13;;;0.40;67.50;;;;;;4937689;28;20158;-79
2022/03/02 02:55:09;;;;;;;8.82;5.20;;;0.40;67.60;;;;;;4929373;28;20186;-80
2022/03/02 02:57:34;;;;;;;9.90;6.07;;;0.40;67.60;;;;;;4939618;28;20066;-79
2022/03/02 03:00:00;;;;;;;12.85;5.93;;;0.40;67.70;;;;;;4938312;28;20146;-79
2022/03/02 03:02:25;;;;;;;9.88;5.75;;;0.40;67.80;;;;;;4932230;28;20626;-79
2022/03/02 03:04:51;;;;;;;10.55;6.50;;;0.30;67.80;;;;;;4936629;28;20050;-80
2022/03/02 03:07:16;;;;;;;11.38;5.90;;;0.40;68.70;;;;;;4940007;28;20076;-79
2022/03/02 03:09:42;;;;;;;12.32;6.47;;;0.30;67.90;;;;;;4942353;28;20063;-80
2022/03/02 03:12:09;;;;;;;9.52;6.15;;;0.30;68.60;;;;;;4945944;28;20054;-80
2022/03/02 03:14:34;;;;;;;10.82;6.10;;;0.30;67.80;;;;;;4939254;28;20047;-80
2022/03/02 03:17:00;;;;;;;10.85;6.28;;;0.20;67.80;;;;;;4946914;28;20519;-79
2022/03/02 03:19:25;;;;;;;9.80;6.32;;;0.10;67.80;;;;;;4948962;28;20050;-80
2022/03/02 03:21:51;;;;;;;10.23;5.82;;;0.10;67.90;;;;;;4952328;28;20047;-78
2022/03/02 03:24:16;;;;;;;10.98;6.18;;;0.00;68.00;;;;;;4930902;28;20035;-79
2022/03/02 03:26:42;;;;;;;11.07;6.90;;;0.00;68.20;;;;;;4938581;28;20035;-76
2022/03/02 03:29:07;;;;;;;9.90;6.07;;;0.00;68.30;;;;;;4938056;28;20051;-79
2022/03/02 03:31:33;;;;;;;9.25;5.35;;;0.00;68.30;;;;;;4937946;28;20101;-79
2022/03/02 03:33:58;;;;;;;9.90;6.10;;;0.00;68.40;;;;;;4941627;28;20110;-79
2022/03/02 03:36:24;;;;;;;10.45;6.35;;;0.00;68.50;;;;;;4921344;28;20051;-79
2022/03/02 03:38:49;;;;;;;9.68;5.65;;;0.00;68.60;;;;;;4919463;29;20568;-79
2022/03/02 03:41:15;;;;;;;12.07;6.10;;;0.00;68.50;;;;;;4920066;28;20042;-80
2022/03/02 03:43:40;;;;;;;10.35;6.38;;;0.00;68.60;;;;;;4939015;28;21015;-79
2022/03/02 03:46:06;;;;;;;9.30;5.80;;;0.00;68.80;;;;;;4939125;28;20039;-79
2022/03/02 03:48:31;;;;;;;10.52;6.18;;;0.00;68.90;;;;;;4938207;28;20630;-79
2022/03/02 03:50:57;;;;;;;8.68;5.72;;;0.00;68.90;;;;;;4951475;28;20039;-79
2022/03/02 03:53:22;;;;;;;12.43;6.07;;;0.00;68.90;;;;;;4938611;28;20066;-79
2022/03/02 03:55:48;;;;;;;8.95;5.63;;;0.00;68.90;;;;;;4940046;28;20489;-79
2022/03/02 03:58:14;;;;;;;9.50;5.72;;;0.00;68.90;;;;;;4943266;28;20515;-79
2022/03/02 04:00:39;;;;;;;10.50;6.03;;;-0.10;68.90;;;;;;4948556;28;20518;-79
2022/03/02 04:03:05;;;;;;;10.07;5.43;;;-0.10;68.90;;;;;;4938365;28;20069;-79
2022/03/02 04:05:31;;;;;;;10.05;5.60;;;-0.10;69.10;;;;;;4943902;28;20039;-79
2022/03/02 04:07:56;;;;;;;10.60;5.55;;;-0.10;69.10;;;;;;4947543;28;20046;-79
2022/03/02 04:10:22;;;;;;;8.82;5.80;;;-0.10;69.20;;;;;;4946187;28;20030;-78
2022/03/02 04:12:47;;;;;;;8.27;5.25;;;-0.10;69.30;;;;;;4959466;28;20031;-79
2022/03/02 04:15:13;;;;;;;10.55;5.55;;;-0.10;69.30;;;;;;4944485;28;20042;-80
2022/03/02 04:17:39;;;;;;;9.77;6.10;;;-0.10;69.40;;;;;;4962398;28;20093;-80
2022/03/02 04:20:06;;;;;;;8.73;5.72;;;-0.10;69.40;;;;;;4915825;28;20484;-79
2022/03/02 04:22:31;;;;;;;10.65;5.90;;;-0.20;69.40;;;;;;4939781;28;20459;-79
2022/03/02 04:24:57;;;;;;;12.38;6.35;;;-0.20;69.50;;;;;;4937309;28;20085;-79
2022/03/02 04:27:22;;;;;;;10.60;6.32;;;-0.20;69.60;;;;;;4947210;28;20039;-79
2022/03/02 04:29:48;;;;;;;10.77;6.72;;;-0.20;69.60;;;;;;4951743;28;20115;-79
2022/03/02 04:32:14;;;;;;;11.93;6.15;;;-0.20;69.60;;;;;;4953021;28;20042;-81
2022/03/02 04:34:40;;;;;;;10.90;5.93;;;-0.20;69.60;;;;;;4916093;28;20520;-80
2022/03/02 04:37:05;;;;;;;10.43;6.38;;;-0.20;69.70;;;;;;4919461;28;20647;-79
2022/03/02 04:39:31;;;;;;;10.32;5.80;;;-0.30;69.70;;;;;;4935695;28;20672;-79
2022/03/02 04:41:56;;;;;;;9.35;5.85;;;-0.30;69.70;;;;;;4946183;28;20126;-78
2022/03/02 04:44:22;;;;;;;9.48;6.18;;;-0.30;69.70;;;;;;4958036;28;20071;-79
2022/03/02 04:46:51;;;;;;;9.23;5.72;;;-0.30;69.70;;;;;;4934806;28;20094;-79
2022/03/02 04:49:18;;;;;;;13.93;7.82;;;-0.30;69.90;;;;;;4930210;28;20118;-78
2022/03/02 04:51:45;;;;;;;11.68;6.68;;;-0.30;69.90;;;;;;4919865;28;20146;-79
2022/03/02 04:55:05;;;;;;;12.68;6.03;;;-0.30;70.00;;;;;;4930779;28;20070;-78
2022/03/02 04:56:56;;;;;;;10.68;5.95;;;-0.30;70.00;;;;;;4941434;28;20102;-79
2022/03/02 04:59:22;;;;;;;11.93;7.05;;;-0.30;70.10;;;;;;4930164;28;20504;-79
2022/03/02 05:01:48;;;;;;;11.75;6.90;;;-0.30;70.20;;;;;;4934543;28;20087;-79
2022/03/02 05:04:13;;;;;;;12.80;5.80;;;-0.30;70.20;;;;;;4926172;29;20047;-78
2022/03/02 05:06:39;;;;;;;10.48;6.32;;;-0.30;70.30;;;;;;4899877;28;20122;-78
2022/03/02 05:09:04;;;;;;;10.60;6.50;;;-0.30;70.40;;;;;;4930942;28;20099;-80
2022/03/02 05:11:30;;;;;;;10.18;6.28;;;-0.30;70.40;;;;;;4936132;28;20090;-79
2022/03/02 05:13:56;;;;;;;9.93;5.88;;;-0.30;70.40;;;;;;4939966;28;20062;-80
2022/03/02 05:16:22;;;;;;;9.18;5.55;;;-0.30;70.40;;;;;;4937439;28;20043;-79
2022/03/02 05:18:48;;;;;;;12.07;7.57;;;-0.30;70.40;;;;;;4952758;28;20039;-80
2022/03/02 05:21:14;;;;;;;11.02;6.30;;;-0.40;70.40;;;;;;4938649;28;20424;-79
2022/03/02 05:23:40;;;;;;;12.85;6.20;;;-0.40;70.50;;;;;;4938498;28;20083;-80
2022/03/02 05:26:06;;;;;;;11.13;5.80;;;-0.40;70.50;;;;;;4925385;28;20168;-78
2022/03/02 05:28:31;;;;;;;9.38;5.45;;;-0.40;70.60;;;;;;4940810;28;20114;-79
2022/03/02 05:30:57;;;;;;;10.70;6.47;;;-0.40;70.60;;;;;;4940709;28;20478;-79
2022/03/02 05:33:22;;;;;;;11.80;6.25;;;-0.40;70.80;;;;;;4933030;28;20672;-79
2022/03/02 05:35:48;;;;;;;12.25;6.15;;;-0.40;70.70;;;;;;4939832;28;20500;-80
2022/03/02 05:38:13;;;;;;;13.57;6.88;;;-0.40;70.70;;;;;;4936131;28;20170;-79
2022/03/02 05:40:39;;;;;;;11.02;6.55;;;-0.40;70.80;;;;;;4939314;28;20121;-79
2022/03/02 05:43:04;;;;;;;10.40;6.45;;;-0.40;70.80;;;;;;4926032;28;20522;-79
2022/03/02 05:45:30;;;;;;;11.02;5.60;;;-0.40;70.80;;;;;;4926279;28;20560;-78
2022/03/02 05:47:55;;;;;;;12.75;6.30;;;-0.40;70.90;;;;;;4934484;28;20066;-79
2022/03/02 05:50:21;;;;;;;10.23;5.82;;;-0.40;70.90;;;;;;4938136;28;20539;-79
2022/03/02 05:52:46;;;;;;;12.00;6.53;;;-0.40;70.90;;;;;;4934498;28;20066;-77
2022/03/02 05:55:12;;;;;;;10.27;6.28;;;-0.30;71.00;;;;;;4932883;28;20040;-77
2022/03/02 05:57:38;;;;;;;12.65;6.07;;;-0.40;71.00;;;;;;4935489;28;20042;-78
2022/03/02 06:00:04;;;;;;;11.65;6.40;;;-0.40;71.00;;;;;;4943853;28;20039;-78
2022/03/02 06:02:30;;;;;;;10.10;6.43;;;-0.40;71.10;;;;;;4929370;28;20129;-78
2022/03/02 06:04:56;;;;;;;10.75;6.28;;;-0.40;71.10;;;;;;4898721;28;20043;-77
2022/03/02 06:07:21;;;;;;;11.02;7.32;;;-0.40;71.20;;;;;;4929068;28;20154;-78
2022/03/02 06:09:49;;;;;;;15.25;8.50;;;-0.40;71.20;;;;;;4929792;28;20065;-80
2022/03/02 06:12:15;;;;;;;13.25;7.78;;;-0.40;71.20;;;;;;4945124;28;20038;-78
2022/03/02 06:14:41;;;;;;;11.38;6.47;;;-0.40;71.20;;;;;;4941402;28;20038;-78
2022/03/02 06:17:09;;;;;;;9.93;5.63;;;-0.40;71.40;;;;;;4954735;28;20508;-78
2022/03/02 06:19:35;;;;;;;15.98;9.20;;;-0.40;71.40;;;;;;4919765;28;20057;-79
2022/03/02 06:22:02;;;;;;;19.15;10.55;;;-0.40;71.40;;;;;;4954110;28;20093;-79
2022/03/02 06:24:28;;;;;;;14.25;6.90;;;-0.40;71.40;;;;;;4918643;28;21174;-78
2022/03/02 06:26:53;;;;;;;60.65;17.67;;;-0.40;71.40;;;;;;4941995;28;20102;-78
2022/03/02 06:29:19;;;;;;;20.30;10.27;;;-0.50;71.50;;;;;;4931626;28;20071;-78
2022/03/02 06:31:44;;;;;;;30.38;11.40;;;-0.40;71.60;;;;;;4931784;28;20047;-79
2022/03/02 06:34:10;;;;;;;41.88;13.52;;;-0.50;71.50;;;;;;4925573;28;20039;-78
2022/03/02 06:36:35;;;;;;;26.05;10.60;;;-0.50;71.50;;;;;;4944090;28;20077;-79
2022/03/02 06:39:01;;;;;;;13.32;6.75;;;-0.40;71.70;;;;;;4920372;28;20039;-79
2022/03/02 06:41:28;;;;;;;22.85;8.98;;;-0.40;71.70;;;;;;4931702;28;20043;-78
2022/03/02 06:44:01;;;;;;;12.85;7.35;;;-0.50;71.60;;;;;;4954046;28;20035;-78
2022/03/02 06:46:32;;;;;;;24.85;10.10;;;-0.40;71.90;;;;;;4925876;28;20496;-79
2022/03/02 06:49:02;;;;;;;10.15;6.25;;;-0.40;71.90;;;;;;4950895;28;20590;-78
2022/03/02 06:51:28;;;;;;;31.33;10.43;;;-0.40;71.90;;;;;;4926083;28;20074;-79
2022/03/02 06:53:53;;;;;;;46.75;26.15;;;-0.40;71.80;;;;;;4930147;28;20039;-78
2022/03/02 06:56:20;;;;;;;25.92;11.50;;;-0.40;71.90;;;;;;4927793;28;20039;-79
2022/03/02 06:58:50;;;;;;;16.70;9.02;;;-0.40;71.90;;;;;;4927130;28;20047;-78
2022/03/02 07:01:26;;;;;;;14.30;9.35;;;-0.30;72.10;;;;;;4941759;28;20039;-79
2022/03/02 07:03:54;;;;;;;15.25;9.48;;;-0.30;72.30;;;;;;4947836;28;20071;-79
2022/03/02 07:06:19;;;;;;;22.27;11.20;;;-0.30;72.10;;;;;;4924727;28;20475;-79
2022/03/02 07:08:45;;;;;;;23.60;11.50;;;-0.20;72.20;;;;;;4935576;28;20118;-80
2022/03/02 07:11:11;;;;;;;17.95;10.23;;;-0.20;72.20;;;;;;4940938;28;20031;-80
2022/03/02 07:13:37;;;;;;;16.25;10.05;;;-0.20;72.20;;;;;;4969937;28;20070;-79
2022/03/02 07:16:02;;;;;;;17.48;10.07;;;-0.10;72.30;;;;;;4939686;28;20039;-79
2022/03/02 07:18:28;;;;;;;20.00;12.95;;;-0.10;72.30;;;;;;4948699;28;20054;-80
2022/03/02 07:20:55;;;;;;;16.90;11.35;;;-0.10;72.30;;;;;;4943237;28;20512;-80
2022/03/02 07:23:20;;;;;;;18.88;13.05;;;0.00;72.40;;;;;;4944527;28;20818;-80
2022/03/02 07:25:46;;;;;;;18.00;11.88;;;0.00;72.40;;;;;;4912824;28;20051;-79
2022/03/02 07:28:13;;;;;;;16.13;10.75;;;0.10;72.50;;;;;;4930803;28;20042;-80
2022/03/02 07:30:39;;;;;;;24.05;11.90;;;0.10;72.40;;;;;;4954064;28;20032;-80
2022/03/02 07:33:05;;;;;;;21.73;10.40;;;0.10;72.40;;;;;;4916389;28;20042;-81
2022/03/02 07:35:32;;;;;;;16.20;8.02;;;0.20;72.40;;;;;;4953832;28;20047;-80
2022/03/02 07:37:58;;;;;;;14.20;7.47;;;0.20;72.40;;;;;;4949131;28;20046;-80
2022/03/02 07:40:23;;;;;;;19.33;10.10;;;0.30;72.40;;;;;;4958029;28;20093;-80
2022/03/02 07:42:49;;;;;;;18.20;10.60;;;0.30;72.40;;;;;;4943305;28;20483;-80
2022/03/02 07:45:16;;;;;;;13.18;8.02;;;0.40;72.40;;;;;;4948489;28;20039;-80
2022/03/02 07:47:42;;;;;;;16.30;7.82;;;0.40;72.40;;;;;;4929188;28;20170;-80
2022/03/02 07:50:08;;;;;;;12.13;7.90;;;0.50;72.40;;;;;;4942188;28;20043;-81
2022/03/02 07:52:37;;;;;;;13.57;7.90;;;0.50;72.40;;;;;;4949153;28;20066;-80
2022/03/02 07:55:09;;;;;;;15.07;9.05;;;0.60;72.40;;;;;;4934686;28;20090;-80
2022/03/02 07:57:35;;;;;;;9.88;7.35;;;0.70;72.40;;;;;;4939024;28;20133;-81
2022/03/02 08:00:00;;;;;;;16.80;7.95;;;0.70;72.40;;;;;;4909118;28;20151;-80
2022/03/02 08:02:26;;;;;;;13.90;8.43;;;0.80;72.40;;;;;;4939815;28;20087;-80
2022/03/02 08:04:52;;;;;;;16.33;8.68;;;0.80;72.40;;;;;;4943151;28;20047;-79
2022/03/02 08:07:19;;;;;;;26.52;12.45;;;0.90;72.40;;;;;;4946215;28;20475;-80
2022/03/02 08:09:44;;;;;;;65.78;23.17;;;1.00;72.40;;;;;;4936467;28;20468;-81
2022/03/02 08:12:11;;;;;;;43.58;19.02;;;1.10;72.40;;;;;;4944950;28;20050;-80
2022/03/02 08:14:36;;;;;;;37.13;16.30;;;1.10;72.40;;;;;;4920529;28;20071;-80
2022/03/02 08:17:03;;;;;;;32.13;14.00;;;1.20;72.20;;;;;;4931218;28;20408;-80
2022/03/02 08:19:30;;;;;;;23.00;10.40;;;1.20;72.10;;;;;;4949545;28;20035;-81
2022/03/02 08:21:58;;;;;;;18.40;9.90;;;1.30;72.00;;;;;;4937344;28;20122;-80
2022/03/02 08:24:25;;;;;;;24.38;11.45;;;1.40;72.00;;;;;;4911662;28;20031;-80
2022/03/02 08:26:52;;;;;;;17.20;9.52;;;1.40;72.00;;;;;;4942804;28;20050;-80
2022/03/02 08:29:17;;;;;;;16.20;8.98;;;1.50;71.20;;;;;;4942387;28;20054;-80
2022/03/02 08:31:43;;;;;;;18.27;9.43;;;1.60;71.90;;;;;;4915051;28;20043;-81
2022/03/02 08:34:09;;;;;;;20.92;9.30;;;1.60;71.80;;;;;;4960002;28;20047;-81
2022/03/02 08:36:35;;;;;;;16.60;9.68;;;1.70;71.80;;;;;;4954057;28;20293;-81
2022/03/02 08:39:03;;;;;;;18.67;9.10;;;1.80;71.80;;;;;;4936714;28;20051;-80
2022/03/02 08:41:28;;;;;;;20.83;10.52;;;1.90;71.80;;;;;;4954067;28;20039;-81
2022/03/02 08:43:54;;;;;;;16.67;9.20;;;1.90;71.60;;;;;;4948996;28;20027;-79
2022/03/02 08:46:19;;;;;;;18.17;7.85;;;2.00;71.60;;;;;;4956806;28;20054;-80
2022/03/02 08:48:45;;;;;;;16.40;8.18;;;2.10;71.60;;;;;;4934132;28;20036;-82
2022/03/02 08:51:10;;;;;;;16.45;8.48;;;2.20;71.30;;;;;;4940091;28;20040;-80
2022/03/02 08:53:37;;;;;;;12.85;8.02;;;2.20;71.20;;;;;;4938794;28;20027;-80
2022/03/02 08:56:07;;;;;;;16.63;7.88;;;2.30;71.00;;;;;;4933849;28;20094;-80
2022/03/02 08:58:32;;;;;;;13.02;7.65;;;2.30;70.80;;;;;;4934737;28;20054;-80
2022/03/02 09:00:59;;;;;;;14.20;8.50;;;2.40;70.80;;;;;;4952389;28;20052;-80
2022/03/02 09:03:25;;;;;;;17.88;8.32;;;2.40;70.60;;;;;;4917012;28;20032;-80
2022/03/02 09:05:51;;;;;;;16.38;8.45;;;2.50;70.60;;;;;;4932841;28;20074;-79
2022/03/02 09:08:17;;;;;;;14.02;8.07;;;2.50;70.40;;;;;;4955642;28;20039;-79
2022/03/02 09:10:43;;;;;;;12.65;7.43;;;2.60;70.40;;;;;;4904217;28;20031;-79
2022/03/02 09:13:11;;;;;;;13.55;7.07;;;2.60;70.20;;;;;;4922298;28;20043;-80
2022/03/02 09:15:40;;;;;;;15.27;7.63;;;2.70;70.20;;;;;;4947976;28;20047;-77
2022/03/02 09:18:06;;;;;;;13.80;7.10;;;2.70;70.10;;;;;;4936619;28;20118;-80
2022/03/02 09:20:31;;;;;;;41.17;21.75;;;2.70;70.10;;;;;;4941299;28;20135;-81
2022/03/02 09:22:58;;;;;;;19.30;10.13;;;2.80;70.10;;;;;;4920892;29;20048;-83
2022/03/02 09:25:23;;;;;;;14.93;7.63;;;2.80;70.00;;;;;;4933341;28;24661;-80
2022/03/02 09:27:50;;;;;;;15.32;7.95;;;2.90;70.00;;;;;;4943298;28;20035;-82
2022/03/02 09:30:15;;;;;;;14.68;7.82;;;2.90;70.00;;;;;;4935148;28;20048;-81
2022/03/02 09:32:41;;;;;;;16.98;8.13;;;3.00;70.00;;;;;;4947948;28;20102;-81
2022/03/02 09:35:12;;;;;;;48.50;19.23;;;3.10;69.90;;;;;;4955123;28;20043;-81
2022/03/02 09:37:38;;;;;;;159.35;54.28;;;3.10;69.70;;;;;;4932923;28;20080;-81
2022/03/02 09:40:04;;;;;;;52.85;21.55;;;3.20;69.70;;;;;;4933587;28;20516;-78
2022/03/02 09:42:45;;;;;;;71.93;28.30;;;3.20;69.60;;;;;;4938379;28;20043;-81
2022/03/02 09:45:12;;;;;;;25.90;11.55;;;3.30;69.40;;;;;;4934127;28;20042;-80
2022/03/02 09:47:45;;;;;;;19.05;9.75;;;3.40;69.40;;;;;;4938877;28;20047;-80
2022/03/02 09:50:12;;;;;;;107.55;42.28;;;3.40;69.40;;;;;;4953458;28;20101;-80
2022/03/02 09:52:41;;;;;;;29.35;14.50;;;3.50;69.20;;;;;;4922744;28;20043;-80
2022/03/02 09:55:09;;;;;;;17.67;10.90;;;3.60;69.10;;;;;;4936274;28;20537;-80
2022/03/02 09:57:34;;;;;;;33.08;14.82;;;3.60;68.90;;;;;;4927753;28;20101;-82
2022/03/02 10:00:00;;;;;;;19.73;10.15;;;3.70;69.70;;;;;;4934028;28;20043;-79
2022/03/02 10:02:36;;;;;;;15.25;8.52;;;3.80;68.80;;;;;;4919955;28;20190;-81
2022/03/02 10:05:10;;;;;;;16.33;7.75;;;3.80;68.50;;;;;;4934425;28;20488;-81
2022/03/02 10:07:57;;;;;;;20.85;12.38;;;3.90;68.40;;;;;;4931858;28;20126;-82
2022/03/02 10:10:23;;;;;;;23.75;11.35;;;4.00;68.20;;;;;;4917315;28;20047;-80
2022/03/02 10:12:53;;;;;;;41.13;19.90;;;4.00;68.00;;;;;;4939633;28;20090;-81
2022/03/02 10:15:19;;;;;;;40.95;17.83;;;4.10;68.60;;;;;;4928222;28;20043;-80
2022/03/02 10:17:46;;;;;;;28.17;13.75;;;4.10;67.60;;;;;;4940627;28;20044;-80
2022/03/02 10:20:23;;;;;;;25.88;13.30;;;4.20;67.60;;;;;;4914669;29;20063;-81
2022/03/02 10:23:00;;;;;;;18.13;9.80;;;4.20;67.50;;;;;;4936597;28;20040;-80
2022/03/02 10:25:50;;;;;;;19.02;9.65;;;4.30;67.40;;;;;;4939078;28;20130;-80
2022/03/02 10:28:19;;;;;;;20.30;10.98;;;4.30;67.10;;;;;;4949994;28;20065;-80
2022/03/02 10:30:44;;;;;;;16.05;9.65;;;4.30;67.10;;;;;;4940734;28;20118;-80
2022/03/02 10:33:21;;;;;;;19.02;10.55;;;4.40;66.90;;;;;;4920509;28;20628;-80
2022/03/02 10:36:04;;;;;;;26.02;11.20;;;4.40;66.60;;;;;;4953128;28;20142;-80
2022/03/02 10:38:39;;;;;;;22.92;11.48;;;4.40;66.50;;;;;;4948838;28;20039;-80
2022/03/02 10:41:07;;;;;;;18.52;10.70;;;4.40;66.40;;;;;;4919152;28;20043;-80
2022/03/02 10:44:05;;;;;;;20.98;11.13;;;4.50;66.40;;;;;;4942254;28;20050;-80
2022/03/02 10:46:31;;;;;;;36.60;14.32;;;4.50;66.00;;;;;;4952127;28;20868;-80
2022/03/02 10:49:16;;;;;;;23.00;11.88;;;4.60;66.30;;;;;;4929442;28;20074;-79
2022/03/02 10:51:42;;;;;;;20.40;9.68;;;4.60;66.20;;;;;;4939751;28;20031;-80
2022/03/02 10:54:07;;;;;;;31.40;13.38;;;4.70;66.20;;;;;;4936711;28;20067;-80
2022/03/02 10:56:41;;;;;;;26.95;12.40;;;4.80;66.20;;;;;;4934691;28;20125;-81
2022/03/02 10:59:16;;;;;;;306.73;94.47;;;4.80;66.00;;;;;;4936518;28;20051;-80
2022/03/02 11:01:42;;;;;;;34.70;15.02;;;4.80;65.80;;;;;;4932000;28;20043;-80
2022/03/02 11:04:08;;;;;;;17.80;9.45;;;4.90;65.90;;;;;;4932553;28;20049;-80
2022/03/02 11:06:35;;;;;;;99.68;31.15;;;4.90;65.70;;;;;;4933680;28;20035;-80
2022/03/02 11:09:03;;;;;;;88.90;34.83;;;4.90;65.60;;;;;;4926606;28;20452;-79
2022/03/02 11:11:29;;;;;;;91.40;33.78;;;5.00;65.30;;;;;;4952726;28;20117;-79
2022/03/02 11:13:55;;;;;;;50.67;20.80;;;5.00;65.40;;;;;;4930131;28;20094;-80
2022/03/02 11:16:21;;;;;;;79.90;32.05;;;5.10;65.40;;;;;;4938184;28;20054;-80
2022/03/02 11:18:52;;;;;;;45.75;19.63;;;5.10;65.20;;;;;;4930344;28;20397;-80
2022/03/02 11:21:22;;;;;;;41.80;18.57;;;5.20;65.10;;;;;;4963599;28;20051;-81
2022/03/02 11:23:53;;;;;;;36.83;16.45;;;5.20;64.90;;;;;;4952314;28;20031;-81
2022/03/02 11:26:29;;;;;;;61.50;28.17;;;5.30;64.70;;;;;;4957884;28;20126;-80
2022/03/02 11:28:59;;;;;;;30.98;15.35;;;5.40;64.60;;;;;;4927641;29;20063;-80
2022/03/02 11:31:30;;;;;;;22.27;12.45;;;5.40;64.60;;;;;;4930967;28;20035;-80
2022/03/02 11:34:17;;;;;;;27.50;13.90;;;5.40;64.50;;;;;;4934449;28;20051;-81
2022/03/02 11:36:49;;;;;;;92.43;34.50;;;5.50;64.50;;;;;;4958521;28;20485;-79
2022/03/02 11:39:16;;;;;;;32.00;14.90;;;5.60;64.40;;;;;;4932803;28;20061;-79
2022/03/02 11:41:43;;;;;;;21.90;11.27;;;5.60;64.30;;;;;;4947180;28;20054;-79
2022/03/02 11:44:30;;;;;;;26.77;14.52;;;5.60;64.00;;;;;;4925870;28;20467;-79
2022/03/02 11:47:11;;;;;;;21.90;11.85;;;5.70;63.50;;;;;;4966822;28;20051;-79
2022/03/02 11:49:50;;;;;;;19.47;9.60;;;5.70;63.70;;;;;;4955106;28;20082;-79
2022/03/02 11:52:29;;;;;;;18.13;9.40;;;5.80;63.70;;;;;;4954165;28;20127;-79
2022/03/02 11:55:08;;;;;;;17.42;10.10;;;5.80;63.80;;;;;;4946995;28;20043;-78
2022/03/02 11:57:53;;;;;;;15.73;8.95;;;5.90;63.80;;;;;;4949438;28;20039;-79
2022/03/02 12:00:20;;;;;;;18.60;10.05;;;6.00;62.90;;;;;;4933092;29;20127;-78
2022/03/02 12:02:46;;;;;;;15.65;9.45;;;6.10;63.30;;;;;;4905595;29;20043;-78
2022/03/02 12:05:13;;;;;;;16.88;9.38;;;6.30;63.30;;;;;;4919390;29;20467;-78
2022/03/02 12:07:46;;;;;;;16.65;9.60;;;6.40;63.00;;;;;;4937500;29;20054;-78
2022/03/02 12:10:20;;;;;;;17.13;9.38;;;6.60;62.70;;;;;;4910866;29;20052;-78
2022/03/02 12:12:46;;;;;;;18.23;8.93;;;6.80;62.50;;;;;;4929762;28;20099;-78
2022/03/02 12:15:11;;;;;;;14.77;8.32;;;7.00;62.50;;;;;;4933850;29;20043;-78
2022/03/02 12:17:37;;;;;;;14.65;8.77;;;7.10;62.00;;;;;;4948202;28;20047;-78
2022/03/02 12:20:14;;;;;;;11.75;7.93;;;7.20;61.60;;;;;;4939826;28;20480;-79
2022/03/02 12:22:45;;;;;;;15.40;8.77;;;7.30;61.10;;;;;;4916609;29;20047;-78
2022/03/02 12:25:12;;;;;;;13.95;8.57;;;7.40;61.30;;;;;;4930883;29;20961;-79
2022/03/02 12:27:38;;;;;;;12.63;7.70;;;7.40;61.00;;;;;;4936656;28;20040;-78
2022/03/02 12:30:08;;;;;;;18.30;8.45;;;7.50;60.80;;;;;;4931422;29;20043;-79
2022/03/02 12:32:36;;;;;;;15.13;8.30;;;7.60;60.60;;;;;;4926236;29;20044;-79
2022/03/02 12:35:04;;;;;;;17.30;8.50;;;7.60;60.50;;;;;;4920902;28;20063;-79
2022/03/02 12:37:31;;;;;;;16.08;8.82;;;7.70;60.50;;;;;;4926721;29;20059;-78
2022/03/02 12:39:56;;;;;;;16.92;9.18;;;7.80;60.40;;;;;;4924722;29;20044;-79
2022/03/02 12:42:22;;;;;;;16.58;9.90;;;7.90;60.20;;;;;;4936165;28;20138;-79
2022/03/02 12:44:57;;;;;;;18.60;9.45;;;8.10;59.90;;;;;;4930462;29;20050;-79